createdAt,value
2018-11-28T00:00:23.510Z,28.07
2018-11-28T00:02:50.713Z,30.90
2018-11-28T00:05:17.909Z,27.03
2018-11-28T00:07:45.090Z,24.60
2018-11-28T00:10:12.906Z,28.27
2018-11-28T00:12:40.133Z,27.87
2018-11-28T00:15:08.185Z,28.70
2018-11-28T00:17:36.136Z,29.50
2018-11-28T00:20:03.369Z,25.47
2018-11-28T00:22:30.532Z,29.00
2018-11-28T00:24:57.726Z,27.93
2018-11-28T00:27:24.912Z,29.40
2018-11-28T00:29:52.113Z,25.33
2018-11-28T00:32:19.292Z,25.57
2018-11-28T00:34:47.419Z,30.23
2018-11-28T00:37:14.620Z,30.70
2018-11-28T00:39:41.784Z,28.17
2018-11-28T00:42:08.983Z,30.67
2018-11-28T00:44:36.173Z,26.67
2018-11-28T00:47:03.351Z,28.67
2018-11-28T00:49:30.530Z,27.50
2018-11-28T00:51:57.732Z,30.37
2018-11-28T00:54:24.904Z,34.13
2018-11-28T00:56:52.093Z,27.80
2018-11-28T00:59:19.272Z,27.07
2018-11-28T01:01:46.470Z,29.67
2018-11-28T01:04:13.644Z,28.43
2018-11-28T01:06:40.824Z,25.60
2018-11-28T01:09:08.007Z,27.43
2018-11-28T01:11:35.209Z,25.30
2018-11-28T01:14:02.385Z,37.30
2018-11-28T01:16:29.591Z,29.03
2018-11-28T01:18:56.778Z,31.10
2018-11-28T01:21:24.177Z,28.27
2018-11-28T01:23:51.360Z,27.73
2018-11-28T01:26:18.569Z,32.13
2018-11-28T01:28:46.566Z,26.23
2018-11-28T01:31:12.971Z,30.27
2018-11-28T01:33:40.161Z,27.23
2018-11-28T01:36:07.345Z,33.80
2018-11-28T01:38:34.531Z,30.87
2018-11-28T01:41:01.724Z,28.97
2018-11-28T01:43:28.913Z,29.63
2018-11-28T01:45:56.146Z,28.37
2018-11-28T01:48:23.366Z,28.47
2018-11-28T01:50:50.548Z,28.47
2018-11-28T01:53:17.748Z,29.77
2018-11-28T01:55:44.926Z,29.53
2018-11-28T01:58:12.112Z,28.87
2018-11-28T02:00:39.413Z,28.17
2018-11-28T02:03:06.618Z,33.10
2018-11-28T02:05:33.817Z,28.43
2018-11-28T02:08:01.001Z,30.83
2018-11-28T02:10:28.178Z,30.80
2018-11-28T02:12:55.400Z,31.40
2018-11-28T02:15:27.333Z,29.43
2018-11-28T02:17:54.919Z,29.27
2018-11-28T02:20:22.107Z,33.47
2018-11-28T02:22:49.376Z,30.67
2018-11-28T02:25:16.881Z,30.97
2018-11-28T02:27:44.170Z,28.97
2018-11-28T02:30:12.886Z,28.13
2018-11-28T02:32:40.112Z,31.03
2018-11-28T02:35:08.348Z,27.13
2018-11-28T02:37:35.520Z,24.60
2018-11-28T02:40:02.728Z,27.70
2018-11-28T02:42:29.912Z,29.17
2018-11-28T02:44:57.089Z,31.73
2018-11-28T02:47:24.279Z,31.57
2018-11-28T02:49:51.473Z,29.13
2018-11-28T02:52:18.676Z,29.37
2018-11-28T02:54:45.872Z,26.10
2018-11-28T02:57:13.064Z,29.43
2018-11-28T02:59:40.235Z,25.20
2018-11-28T03:02:07.445Z,28.10
2018-11-28T03:04:34.610Z,30.47
2018-11-28T03:07:01.792Z,28.20
2018-11-28T03:09:29.000Z,30.47
2018-11-28T03:11:56.185Z,34.07
2018-11-28T03:14:23.360Z,26.37
2018-11-28T03:16:50.544Z,28.97
2018-11-28T03:19:17.765Z,29.03
2018-11-28T03:21:44.992Z,29.10
2018-11-28T03:24:12.159Z,29.67
2018-11-28T03:26:39.328Z,30.50
2018-11-28T03:29:06.533Z,27.23
2018-11-28T03:31:33.794Z,27.70
2018-11-28T03:34:01.055Z,30.73
2018-11-28T03:36:28.255Z,32.00
2018-11-28T03:38:55.432Z,28.87
2018-11-28T03:41:22.614Z,29.20
2018-11-28T03:43:49.809Z,30.77
2018-11-28T03:46:16.973Z,26.90
2018-11-28T03:48:44.252Z,30.40
2018-11-28T03:51:11.436Z,30.40
2018-11-28T03:53:38.633Z,29.20
2018-11-28T03:56:05.821Z,28.30
2018-11-28T03:58:33.017Z,28.47
2018-11-28T04:01:00.230Z,28.70
2018-11-28T04:03:27.425Z,28.70
2018-11-28T04:05:54.602Z,30.23
2018-11-28T04:08:21.790Z,30.20
2018-11-28T04:10:49.022Z,27.70
2018-11-28T04:13:16.200Z,26.63
2018-11-28T04:15:43.424Z,29.43
2018-11-28T04:18:10.588Z,30.47
2018-11-28T04:20:37.835Z,29.87
2018-11-28T04:23:05.009Z,26.80
2018-11-28T04:25:32.185Z,29.67
2018-11-28T04:27:59.364Z,27.13
2018-11-28T04:30:26.632Z,29.70
2018-11-28T04:32:54.296Z,28.47
2018-11-28T04:35:21.508Z,30.57
2018-11-28T04:37:48.684Z,28.70
2018-11-28T04:40:16.361Z,28.27
2018-11-28T04:42:43.691Z,32.40
2018-11-28T04:45:12.540Z,29.17
2018-11-28T04:47:39.740Z,30.00
2018-11-28T04:50:07.787Z,31.43
2018-11-28T04:52:34.968Z,33.93
2018-11-28T04:55:02.163Z,30.63
2018-11-28T04:57:29.325Z,27.67
2018-11-28T04:59:56.525Z,31.23
2018-11-28T05:02:23.695Z,32.33
2018-11-28T05:04:50.879Z,31.77
2018-11-28T05:07:32.553Z,33.53
2018-11-28T05:09:59.755Z,36.20
2018-11-28T05:12:26.975Z,33.07
2018-11-28T05:14:54.161Z,31.27
2018-11-28T05:17:21.328Z,30.43
2018-11-28T05:19:48.504Z,28.17
2018-11-28T05:22:15.716Z,29.67
2018-11-28T05:24:42.900Z,31.40
2018-11-28T05:27:10.091Z,30.40
2018-11-28T05:29:37.273Z,31.97
2018-11-28T05:32:04.848Z,29.47
2018-11-28T05:34:33.092Z,28.70
2018-11-28T05:37:00.297Z,27.77
2018-11-28T05:39:27.472Z,31.03
2018-11-28T05:41:54.663Z,33.47
2018-11-28T05:44:21.948Z,30.80
2018-11-28T05:46:49.306Z,29.27
2018-11-28T05:49:16.472Z,35.73
2018-11-28T05:51:43.656Z,30.90
2018-11-28T05:54:10.924Z,31.47
2018-11-28T05:56:38.126Z,29.50
2018-11-28T05:59:05.306Z,29.63
2018-11-28T06:01:32.584Z,31.40
2018-11-28T06:03:59.761Z,27.73
2018-11-28T06:06:26.942Z,33.97
2018-11-28T06:08:54.296Z,32.30
2018-11-28T06:11:21.489Z,29.23
2018-11-28T06:13:48.734Z,25.37
2018-11-28T06:16:15.865Z,26.93
2018-11-28T06:18:43.038Z,33.03
2018-11-28T06:21:10.256Z,29.20
2018-11-28T06:23:37.449Z,28.87
2018-11-28T06:26:04.916Z,33.47
2018-11-28T06:28:32.105Z,30.07
2018-11-28T06:30:59.293Z,29.60
2018-11-28T06:33:26.468Z,29.77
2018-11-28T06:35:53.639Z,29.13
2018-11-28T06:38:20.832Z,29.00
2018-11-28T06:40:48.149Z,29.57
2018-11-28T06:43:15.344Z,30.50
2018-11-28T06:45:42.508Z,29.37
2018-11-28T06:48:09.690Z,29.80
2018-11-28T06:50:37.096Z,31.17
2018-11-28T06:53:04.290Z,31.57
2018-11-28T06:55:31.456Z,32.90
2018-11-28T06:57:58.655Z,28.00
2018-11-28T07:00:25.818Z,29.13
2018-11-28T07:02:53.577Z,29.00
2018-11-28T07:05:21.140Z,32.37
2018-11-28T07:07:48.363Z,31.53
2018-11-28T07:10:16.144Z,33.67
2018-11-28T07:12:43.315Z,29.40
2018-11-28T07:15:11.072Z,32.07
2018-11-28T07:17:38.360Z,33.73
2018-11-28T07:20:06.201Z,32.47
2018-11-28T07:22:33.384Z,35.10
2018-11-28T07:25:00.557Z,31.70
2018-11-28T07:27:27.760Z,31.73
2018-11-28T07:29:54.949Z,34.83
2018-11-28T07:32:22.136Z,32.93
2018-11-28T07:34:49.307Z,31.63
2018-11-28T07:37:16.484Z,35.67
2018-11-28T07:39:43.782Z,32.60
2018-11-28T07:42:10.952Z,33.00
2018-11-28T07:44:38.190Z,31.40
2018-11-28T07:47:05.369Z,35.07
2018-11-28T07:49:32.627Z,33.33
2018-11-28T07:51:59.810Z,30.93
2018-11-28T07:54:27.036Z,32.73
2018-11-28T07:56:54.206Z,29.20
2018-11-28T07:59:21.410Z,34.80
2018-11-28T08:01:48.655Z,34.30
2018-11-28T08:04:15.857Z,36.03
2018-11-28T08:06:43.044Z,32.40
2018-11-28T08:09:10.224Z,32.17
2018-11-28T08:11:38.175Z,32.27
2018-11-28T08:14:05.891Z,31.47
2018-11-28T08:16:33.081Z,30.47
2018-11-28T08:19:00.274Z,32.50
2018-11-28T08:21:27.446Z,34.13
2018-11-28T08:23:54.633Z,28.70
2018-11-28T08:26:21.801Z,33.10
2018-11-28T08:28:49.004Z,34.97
2018-11-28T08:31:16.181Z,34.67
2018-11-28T08:33:43.340Z,34.60
2018-11-28T08:36:10.517Z,30.97
2018-11-28T08:38:37.681Z,33.20
2018-11-28T08:41:04.987Z,34.00
2018-11-28T08:43:32.164Z,35.80
2018-11-28T08:45:59.356Z,30.80
2018-11-28T08:48:26.541Z,30.77
2018-11-28T08:50:53.729Z,32.60
2018-11-28T08:53:20.928Z,30.47
2018-11-28T08:55:48.109Z,31.97
2018-11-28T08:58:15.285Z,31.50
2018-11-28T09:00:42.487Z,30.47
2018-11-28T09:03:09.662Z,33.00
2018-11-28T09:05:36.841Z,32.40
2018-11-28T09:08:04.159Z,32.07
2018-11-28T09:10:31.348Z,35.80
2018-11-28T09:13:03.724Z,31.70
2018-11-28T09:15:26.261Z,36.20
2018-11-28T09:17:53.460Z,34.57
2018-11-28T09:20:20.641Z,34.67
2018-11-28T09:22:47.964Z,35.90
2018-11-28T09:25:15.651Z,34.20
2018-11-28T09:27:43.334Z,35.93
2018-11-28T09:30:12.309Z,35.30
2018-11-28T09:32:39.512Z,38.00
2018-11-28T09:35:07.360Z,34.30
2018-11-28T09:37:34.545Z,33.80
2018-11-28T09:40:01.750Z,37.20
2018-11-28T09:42:28.980Z,31.97
2018-11-28T09:44:56.180Z,31.83
2018-11-28T09:47:23.353Z,34.13
2018-11-28T09:49:50.727Z,34.93
2018-11-28T09:52:17.921Z,34.27
2018-11-28T09:54:45.133Z,32.37
2018-11-28T09:57:12.320Z,31.67
2018-11-28T09:59:39.542Z,32.17
2018-11-28T10:02:06.790Z,30.43
2018-11-28T10:04:33.971Z,31.73
2018-11-28T10:07:01.148Z,30.73
2018-11-28T10:09:28.345Z,31.90
2018-11-28T10:11:55.609Z,34.53
2018-11-28T10:14:22.800Z,35.60
2018-11-28T10:16:50.673Z,31.03
2018-11-28T10:19:17.162Z,32.73
2018-11-28T10:21:44.341Z,36.17
2018-11-28T10:24:11.602Z,31.03
2018-11-28T10:26:38.773Z,31.20
2018-11-28T10:29:05.960Z,32.07
2018-11-28T10:31:33.149Z,38.47
2018-11-28T10:34:00.365Z,32.50
2018-11-28T10:36:27.540Z,31.37
2018-11-28T10:38:54.743Z,32.63
2018-11-28T10:41:21.945Z,34.13
2018-11-28T10:43:49.160Z,36.23
2018-11-28T10:46:16.356Z,33.30
2018-11-28T10:48:43.517Z,31.80
2018-11-28T10:51:10.701Z,33.07
2018-11-28T10:53:37.897Z,31.87
2018-11-28T10:56:05.189Z,29.40
2018-11-28T10:58:32.369Z,30.33
2018-11-28T11:01:04.960Z,32.10
2018-11-28T11:03:37.658Z,35.10
2018-11-28T11:06:10.640Z,29.30
2018-11-28T11:10:47.725Z,33.17
2018-11-28T11:13:20.362Z,34.13
2018-11-28T11:15:53.152Z,32.90
2018-11-28T11:18:20.662Z,32.30
2018-11-28T11:20:47.850Z,31.07
2018-11-28T11:23:15.048Z,32.13
2018-11-28T11:25:42.328Z,31.87
2018-11-28T11:28:09.596Z,30.30
2018-11-28T11:30:36.908Z,32.80
2018-11-28T11:33:04.454Z,28.93
2018-11-28T11:35:31.661Z,29.00
2018-11-28T11:37:58.906Z,29.87
2018-11-28T11:40:26.093Z,33.07
2018-11-28T11:42:53.288Z,26.03
2018-11-28T11:45:20.508Z,34.03
2018-11-28T11:47:47.760Z,29.23
2018-11-28T11:50:16.751Z,31.63
2018-11-28T11:52:44.016Z,28.47
2018-11-28T11:55:15.690Z,23.87
2018-11-28T11:57:42.859Z,27.73
2018-11-28T12:00:13.992Z,26.37
2018-11-28T12:02:41.179Z,30.70
2018-11-28T12:05:08.998Z,25.40
2018-11-28T12:07:36.173Z,23.67
2018-11-28T12:10:08.969Z,26.70
2018-11-28T12:12:31.163Z,26.67
2018-11-28T12:14:58.357Z,25.77
2018-11-28T12:17:25.544Z,23.27
2018-11-28T12:19:52.727Z,27.30
2018-11-28T12:22:19.900Z,23.10
2018-11-28T12:24:47.065Z,24.90
2018-11-28T12:27:14.249Z,23.00
2018-11-28T12:29:41.427Z,24.43
2018-11-28T12:32:08.589Z,21.40
2018-11-28T12:34:35.785Z,24.80
2018-11-28T12:37:02.969Z,22.50
2018-11-28T12:39:30.159Z,24.53
2018-11-28T12:41:57.406Z,22.47
2018-11-28T12:44:24.591Z,22.13
2018-11-28T12:46:51.766Z,21.30
2018-11-28T12:49:18.945Z,26.23
2018-11-28T12:51:46.141Z,21.43
2018-11-28T12:54:13.378Z,23.70
2018-11-28T12:56:40.554Z,22.47
2018-11-28T12:59:07.797Z,24.23
2018-11-28T13:01:35.068Z,21.87
2018-11-28T13:04:02.331Z,22.10
2018-11-28T13:06:29.498Z,20.20
2018-11-28T13:08:56.672Z,23.17
2018-11-28T13:11:23.861Z,19.60
2018-11-28T13:13:51.019Z,17.73
2018-11-28T13:16:18.192Z,19.20
2018-11-28T13:18:45.364Z,20.90
2018-11-28T13:21:12.546Z,19.20
2018-11-28T13:23:39.737Z,21.50
2018-11-28T13:26:06.986Z,20.80
2018-11-28T13:28:34.127Z,22.67
2018-11-28T13:31:01.338Z,22.70
2018-11-28T13:33:28.513Z,20.20
2018-11-28T13:35:55.688Z,16.97
2018-11-28T13:38:22.863Z,17.40
2018-11-28T13:40:50.033Z,19.00
2018-11-28T13:43:17.214Z,19.40
2018-11-28T13:45:45.213Z,19.67
2018-11-28T13:48:12.654Z,17.73
2018-11-28T13:50:39.824Z,18.07
2018-11-28T13:53:08.212Z,17.23
2018-11-28T13:55:38.402Z,15.23
2018-11-28T13:58:04.172Z,19.70
2018-11-28T14:00:31.353Z,19.07
2018-11-28T14:02:58.532Z,15.90
2018-11-28T14:05:25.732Z,17.53
2018-11-28T14:07:52.916Z,18.07
2018-11-28T14:10:20.148Z,18.17
2018-11-28T14:12:47.319Z,19.13
2018-11-28T14:15:15.687Z,17.50
2018-11-28T14:17:45.612Z,18.30
2018-11-28T14:20:12.801Z,17.07
2018-11-28T14:22:40.033Z,15.63
2018-11-28T14:25:07.964Z,17.30
2018-11-28T14:27:35.145Z,17.57
2018-11-28T14:30:02.322Z,17.53
2018-11-28T14:32:29.582Z,18.67
2018-11-28T14:34:56.748Z,20.10
2018-11-28T14:37:23.910Z,17.97
2018-11-28T14:39:51.088Z,20.30
2018-11-28T14:42:18.276Z,19.97
2018-11-28T14:44:45.506Z,21.43
2018-11-28T14:47:12.681Z,18.77
2018-11-28T14:49:39.918Z,19.93
2018-11-28T14:52:07.103Z,20.47
2018-11-28T14:54:34.262Z,18.30
2018-11-28T14:57:01.431Z,18.97
2018-11-28T14:59:28.608Z,17.90
2018-11-28T15:01:55.773Z,21.40
2018-11-28T15:04:22.943Z,20.47
2018-11-28T15:06:51.377Z,22.37
2018-11-28T15:09:24.037Z,21.20
2018-11-28T15:11:51.220Z,17.40
2018-11-28T15:14:18.608Z,20.73
2018-11-28T15:16:45.789Z,19.70
2018-11-28T15:19:12.972Z,23.30
2018-11-28T15:21:40.143Z,18.53
2018-11-28T15:24:07.349Z,19.00
2018-11-28T15:26:34.526Z,20.60
2018-11-28T15:29:01.764Z,20.77
2018-11-28T15:31:29.030Z,25.40
2018-11-28T15:33:56.256Z,23.70
2018-11-28T15:36:23.425Z,23.87
2018-11-28T15:38:50.618Z,21.93
2018-11-28T15:41:17.799Z,24.00
2018-11-28T15:43:45.075Z,24.53
2018-11-28T15:46:14.854Z,24.10
2018-11-28T15:48:39.441Z,22.23
2018-11-28T15:51:06.632Z,21.60
2018-11-28T15:53:33.808Z,27.23
2018-11-28T15:56:01.056Z,23.67
2018-11-28T15:58:28.250Z,24.00
2018-11-28T16:00:55.428Z,25.77
2018-11-28T16:03:22.602Z,26.77
2018-11-28T16:05:49.800Z,27.13
2018-11-28T16:08:16.980Z,25.53
2018-11-28T16:10:44.465Z,27.53
2018-11-28T16:13:12.510Z,26.47
2018-11-28T16:15:41.924Z,28.43
2018-11-28T16:18:09.096Z,31.63
2018-11-28T16:20:36.261Z,29.77
2018-11-28T16:23:04.714Z,30.67
2018-11-28T16:25:30.616Z,32.53
2018-11-28T16:27:57.789Z,30.40
2018-11-28T16:30:24.996Z,33.50
2018-11-28T16:32:52.172Z,31.73
2018-11-28T16:35:19.368Z,27.90
2018-11-28T16:37:46.568Z,32.17
2018-11-28T16:40:14.201Z,30.73
2018-11-28T16:42:41.480Z,32.87
2018-11-28T16:45:12.127Z,33.90
2018-11-28T16:47:39.316Z,33.00
2018-11-28T16:50:06.848Z,29.63
2018-11-28T16:52:34.033Z,32.87
2018-11-28T16:55:01.216Z,35.07
2018-11-28T16:57:28.401Z,28.00
2018-11-28T16:59:55.568Z,28.17
2018-11-28T17:02:22.744Z,34.63
2018-11-28T17:04:49.954Z,37.77
2018-11-28T17:07:17.208Z,33.47
2018-11-28T17:09:44.389Z,33.43
2018-11-28T17:12:11.577Z,36.23
2018-11-28T17:14:38.756Z,32.30
2018-11-28T17:17:05.952Z,32.10
2018-11-28T17:19:33.123Z,33.70
2018-11-28T17:22:00.295Z,33.50
2018-11-28T17:24:27.484Z,31.43
2018-11-28T17:26:54.653Z,31.07
2018-11-28T17:29:21.837Z,31.13
2018-11-28T17:31:49.099Z,35.60
2018-11-28T17:34:16.291Z,32.80
2018-11-28T17:36:43.484Z,34.47
2018-11-28T17:39:12.002Z,34.20
2018-11-28T17:41:39.354Z,33.27
2018-11-28T17:44:06.557Z,33.03
2018-11-28T17:46:33.746Z,36.00
2018-11-28T17:49:00.951Z,34.10
2018-11-28T17:51:28.133Z,32.40
2018-11-28T17:53:55.389Z,37.77
2018-11-28T17:56:22.560Z,35.90
2018-11-28T17:58:49.740Z,33.80
2018-11-28T18:01:17.181Z,32.87
2018-11-28T18:03:44.404Z,31.83
2018-11-28T18:06:11.637Z,32.10
2018-11-28T18:08:38.784Z,29.43
2018-11-28T18:11:07.799Z,34.73
2018-11-28T18:13:39.482Z,32.90
2018-11-28T18:16:02.412Z,32.87
2018-11-28T18:18:29.576Z,33.33
2018-11-28T18:20:56.752Z,30.57
2018-11-28T18:23:23.920Z,31.10
2018-11-28T18:25:51.099Z,31.97
2018-11-28T18:28:18.264Z,28.53
2018-11-28T18:30:45.464Z,27.50
2018-11-28T18:33:13.058Z,24.17
2018-11-28T18:35:40.261Z,31.37
2018-11-28T18:38:07.438Z,27.20
2018-11-28T18:40:34.627Z,26.80
2018-11-28T18:43:01.784Z,29.00
2018-11-28T18:45:29.745Z,26.63
2018-11-28T18:47:57.005Z,23.70
2018-11-28T18:50:24.228Z,24.03
2018-11-28T18:52:51.423Z,25.70
2018-11-28T18:55:19.083Z,22.70
2018-11-28T18:57:46.912Z,27.87
2018-11-28T19:00:15.552Z,28.73
2018-11-28T19:02:42.806Z,25.07
2018-11-28T19:05:09.952Z,27.83
2018-11-28T19:07:37.150Z,25.27
2018-11-28T19:10:05.565Z,25.73
2018-11-28T19:12:32.752Z,21.93
2018-11-28T19:14:59.935Z,25.37
2018-11-28T19:17:27.116Z,22.80
2018-11-28T19:19:54.332Z,25.50
2018-11-28T19:22:21.512Z,23.30
2018-11-28T19:24:48.681Z,23.53
2018-11-28T19:27:15.835Z,21.20
2018-11-28T19:29:43.141Z,23.27
2018-11-28T19:32:10.344Z,21.60
2018-11-28T19:34:38.132Z,19.60
2018-11-28T19:37:05.823Z,23.67
2018-11-28T19:39:33.043Z,23.57
2018-11-28T19:42:00.232Z,22.80
2018-11-28T19:44:27.476Z,23.00
2018-11-28T19:46:54.764Z,24.07
2018-11-28T19:49:21.973Z,24.23
2018-11-28T19:51:49.152Z,22.23
2018-11-28T19:54:16.340Z,23.00
2018-11-28T19:56:43.507Z,22.50
2018-11-28T19:59:10.687Z,23.53
2018-11-28T20:01:37.930Z,23.13
2018-11-28T20:04:05.136Z,21.30
2018-11-28T20:06:32.315Z,20.30
2018-11-28T20:08:59.608Z,23.63
2018-11-28T20:11:26.853Z,20.07
2018-11-28T20:13:54.104Z,21.10
2018-11-28T20:16:21.276Z,17.63
2018-11-28T20:18:48.431Z,20.50
2018-11-28T20:21:15.625Z,21.00
2018-11-28T20:23:42.800Z,19.20
2018-11-28T20:26:10.061Z,18.97
2018-11-28T20:28:37.246Z,18.50
2018-11-28T20:31:04.601Z,16.87
2018-11-28T20:33:31.769Z,17.33
2018-11-28T20:35:58.935Z,21.37
2018-11-28T20:38:27.323Z,18.80
2018-11-28T20:40:54.501Z,18.87
2018-11-28T20:43:21.681Z,17.07
2018-11-28T20:45:48.910Z,18.17
2018-11-28T20:48:16.103Z,17.77
2018-11-28T20:50:43.305Z,15.40
2018-11-28T20:53:13.305Z,16.27
2018-11-28T20:55:40.515Z,16.03
2018-11-28T20:58:07.745Z,16.93
2018-11-28T21:00:34.996Z,18.73
2018-11-28T21:03:02.205Z,15.87
2018-11-28T21:05:29.451Z,15.17
2018-11-28T21:07:56.664Z,17.93
2018-11-28T21:10:29.367Z,19.80
2018-11-28T21:12:56.562Z,16.80
2018-11-28T21:15:23.819Z,18.27
2018-11-28T21:17:51.008Z,19.30
2018-11-28T21:20:18.688Z,15.43
2018-11-28T21:22:46.598Z,14.90
2018-11-28T21:25:13.808Z,15.93
2018-11-28T21:27:41.014Z,15.80
2018-11-28T21:30:09.886Z,15.00
2018-11-28T21:32:37.077Z,15.70
2018-11-28T21:35:04.900Z,13.13
2018-11-28T21:37:32.075Z,13.87
2018-11-28T21:39:59.249Z,12.93
2018-11-28T21:42:26.456Z,15.93
2018-11-28T21:44:53.647Z,12.70
2018-11-28T21:47:21.073Z,13.27
2018-11-28T21:49:48.254Z,14.20
2018-11-28T21:52:15.440Z,13.83
2018-11-28T21:54:42.607Z,13.97
2018-11-28T21:57:09.783Z,14.90
2018-11-28T21:59:36.995Z,12.53
2018-11-28T22:02:04.159Z,14.40
2018-11-28T22:04:31.352Z,15.27
2018-11-28T22:06:58.521Z,13.10
2018-11-28T22:09:25.772Z,14.60
2018-11-28T22:11:52.952Z,13.20
2018-11-28T22:14:20.129Z,14.27
2018-11-28T22:16:47.283Z,18.60
2018-11-28T22:19:14.476Z,15.00
2018-11-28T22:21:41.700Z,16.20
2018-11-28T22:24:08.878Z,14.60
2018-11-28T22:26:36.051Z,13.27
2018-11-28T22:29:03.237Z,12.33
2018-11-28T22:31:30.383Z,13.50
2018-11-28T22:33:57.551Z,13.90
2018-11-28T22:36:24.730Z,10.90
2018-11-28T22:38:51.934Z,10.83
2018-11-28T22:41:19.093Z,12.70
2018-11-28T22:43:46.279Z,12.40
2018-11-28T22:46:13.431Z,13.37
2018-11-28T22:48:40.602Z,11.30
2018-11-28T22:51:07.775Z,13.73
2018-11-28T22:53:34.952Z,11.90
2018-11-28T22:56:02.118Z,11.43
2018-11-28T22:58:29.304Z,11.77
2018-11-28T23:01:01.872Z,11.70
2018-11-28T23:03:29.040Z,10.47
2018-11-28T23:05:56.234Z,11.40
2018-11-28T23:08:23.416Z,11.00
2018-11-28T23:10:50.957Z,10.90
2018-11-28T23:13:18.871Z,10.57
2018-11-28T23:15:46.027Z,9.50
2018-11-28T23:18:13.205Z,10.67
2018-11-28T23:20:40.379Z,10.83
2018-11-28T23:23:08.030Z,9.40
2018-11-28T23:25:35.125Z,11.40
2018-11-28T23:28:02.328Z,10.87
2018-11-28T23:30:29.530Z,12.00
2018-11-28T23:32:56.710Z,10.80
2018-11-28T23:35:24.075Z,11.27
2018-11-28T23:37:51.266Z,10.90
2018-11-28T23:40:18.892Z,9.60
2018-11-28T23:42:46.052Z,10.03
2018-11-28T23:45:13.613Z,10.67
2018-11-28T23:47:40.803Z,8.93
2018-11-28T23:50:11.448Z,9.83
2018-11-28T23:52:38.797Z,10.10
2018-11-28T23:55:06.911Z,9.10
2018-11-28T23:57:34.063Z,11.63
